createdAt,value
2023-03-04T00:06:37.868Z,1.24
2023-03-04T00:17:03.852Z,1.32
2023-03-04T00:27:28.668Z,1.24
2023-03-04T00:37:53.506Z,1.18
2023-03-04T00:48:18.298Z,1.18
2023-03-04T00:58:43.011Z,1.16
2023-03-04T01:09:07.959Z,1.22
2023-03-04T01:19:32.948Z,1.17
2023-03-04T01:29:58.106Z,1.10
2023-03-04T01:40:24.081Z,1.03
2023-03-04T01:50:48.682Z,1.01
2023-03-04T02:01:13.976Z,0.98
2023-03-04T02:11:39.666Z,0.99
2023-03-04T02:22:04.342Z,1.05
2023-03-04T02:32:28.777Z,1.12
2023-03-04T02:42:53.215Z,1.23
2023-03-04T02:53:17.565Z,1.33
2023-03-04T03:03:41.770Z,1.33
2023-03-04T03:14:06.591Z,1.44
2023-03-04T03:24:30.786Z,1.49
2023-03-04T03:34:55.039Z,1.66
2023-03-04T03:45:20.027Z,1.67
2023-03-04T03:55:44.959Z,1.56
2023-03-04T04:06:09.937Z,1.45
2023-03-04T04:16:36.043Z,1.29
2023-03-04T04:27:00.862Z,1.24
2023-03-04T04:37:25.248Z,1.22
2023-03-04T04:47:49.399Z,1.24
2023-03-04T04:58:13.641Z,1.27
2023-03-04T05:08:38.306Z,1.17
2023-03-04T05:19:02.505Z,1.03
2023-03-04T05:29:26.781Z,0.89
2023-03-04T05:39:50.981Z,0.90
2023-03-04T05:50:15.514Z,1.01
2023-03-04T06:00:39.729Z,1.09
2023-03-04T06:11:04.944Z,1.15
2023-03-04T06:21:29.230Z,1.22
2023-03-04T06:31:53.607Z,1.24
2023-03-04T06:42:17.982Z,1.25
2023-03-04T06:52:42.438Z,1.06
2023-03-04T07:03:06.673Z,0.90
2023-03-04T07:13:30.990Z,0.91
2023-03-04T07:23:56.703Z,0.91
2023-03-04T07:34:21.212Z,0.91
2023-03-04T07:44:45.387Z,0.94
2023-03-04T07:55:12.445Z,0.96
2023-03-04T08:05:39.872Z,0.92
2023-03-04T08:16:06.454Z,0.90
2023-03-04T08:26:34.077Z,0.90
2023-03-04T08:36:58.901Z,0.90
2023-03-04T08:47:23.751Z,0.88
2023-03-04T08:57:48.142Z,0.91
2023-03-04T09:08:12.947Z,1.05
2023-03-04T09:18:37.312Z,1.16
2023-03-04T09:29:02.648Z,1.24
2023-03-04T09:39:27.385Z,1.28
2023-03-04T09:49:57.302Z,1.32
2023-03-04T10:00:24.531Z,1.32
2023-03-04T10:10:51.380Z,1.34
2023-03-04T10:21:23.036Z,1.34
2023-03-04T10:31:48.821Z,1.25
2023-03-04T10:42:30.081Z,1.24
2023-03-04T10:52:55.706Z,1.23
2023-03-04T11:03:30.009Z,1.17
2023-03-04T11:13:59.245Z,1.22
2023-03-04T11:24:30.211Z,1.29
2023-03-04T11:35:01.175Z,1.33
2023-03-04T11:45:36.851Z,1.40
2023-03-04T11:56:10.815Z,1.45
2023-03-04T12:06:47.953Z,1.49
2023-03-04T12:17:40.172Z,1.58
2023-03-04T12:28:21.227Z,1.72
2023-03-04T12:39:05.789Z,1.84
2023-03-04T12:49:54.655Z,1.98
2023-03-04T13:00:31.235Z,2.04
2023-03-04T13:11:02.351Z,2.09
2023-03-04T13:21:28.474Z,2.19
2023-03-04T13:32:01.439Z,2.28
2023-03-04T13:42:43.347Z,2.38
2023-03-04T13:53:31.398Z,2.50
2023-03-04T14:03:56.301Z,2.46
2023-03-04T14:14:24.250Z,2.49
2023-03-04T14:25:01.914Z,2.52
2023-03-04T14:35:28.314Z,2.58
2023-03-04T14:45:55.929Z,2.60
2023-03-04T14:56:28.839Z,2.62
2023-03-04T15:06:54.342Z,2.61
2023-03-04T15:17:36.959Z,2.54
2023-03-04T15:28:02.987Z,2.53
2023-03-04T15:38:29.207Z,2.52
2023-03-04T15:48:54.523Z,2.49
2023-03-04T15:59:19.930Z,2.43
2023-03-04T16:09:44.425Z,2.39
2023-03-04T16:20:11.883Z,2.34
2023-03-04T16:30:36.213Z,2.37
2023-03-04T16:41:01.843Z,2.34
2023-03-04T16:51:26.147Z,2.32
2023-03-04T17:01:54.037Z,2.37
2023-03-04T17:12:18.459Z,2.38
2023-03-04T17:22:43.276Z,2.44
2023-03-04T17:33:08.233Z,2.38
2023-03-04T17:43:33.243Z,2.39
2023-03-04T17:53:58.799Z,2.39
2023-03-04T18:04:24.501Z,2.49
2023-03-04T18:14:48.853Z,2.53
2023-03-04T18:25:13.887Z,2.52
2023-03-04T18:35:38.256Z,2.64
2023-03-04T18:46:05.753Z,2.97
2023-03-04T18:56:37.674Z,3.22
2023-03-04T19:07:02.133Z,3.57
2023-03-04T19:17:31.527Z,3.54
2023-03-04T19:27:56.496Z,3.31
2023-03-04T19:38:21.796Z,3.21
2023-03-04T19:48:49.512Z,3.21
2023-03-04T19:59:13.870Z,3.27
2023-03-04T20:09:38.128Z,3.35
2023-03-04T20:20:03.420Z,3.46
2023-03-04T20:30:27.689Z,3.44
2023-03-04T20:40:51.924Z,3.44
2023-03-04T20:51:16.768Z,3.53
2023-03-04T21:01:44.066Z,3.50
2023-03-04T21:12:09.660Z,3.61
2023-03-04T21:22:33.990Z,3.58
2023-03-04T21:32:59.958Z,3.70
2023-03-04T21:43:24.783Z,3.72
2023-03-04T21:53:49.652Z,3.56
2023-03-04T22:04:14.616Z,3.45
2023-03-04T22:14:39.685Z,3.41
2023-03-04T22:25:04.916Z,3.31
2023-03-04T22:35:29.200Z,2.87
2023-03-04T22:45:54.172Z,2.75
2023-03-04T22:56:20.216Z,2.88
2023-03-04T23:06:44.585Z,3.03
2023-03-04T23:17:10.053Z,3.33
2023-03-04T23:27:34.864Z,3.52
2023-03-04T23:37:59.745Z,3.62
2023-03-04T23:48:24.559Z,3.72
2023-03-04T23:58:50.190Z,3.87
